メインページ
METAR-TAF:

METAR-TAF

空港 :

Greater Rochester International Airport

ロチェスター, ニューヨーク, アメリカ合衆国

緯度: 43-07-00N, 経度: 077-40-36W, 海抜: 170m

現時点の気象観測

当レポートは57分前の01:54(UTC)に作成
西/南西の風 4kt
気温 -5°C
湿度 79%
気圧 1022 hPa
視程: 16.1km
高度7000ftの千切れ雲あり

METAR: KROC 070154Z 25004KT 10SM BKN070 M05/M08 A3019 RMK AO2 SLP233 T10501078 $

時間: 21:51 (02:51 UTC)

予報

当レポートは1時間35分前の01:16(UTC)に作成
予報は07日の 01時(UTC)から 07日の 24時(UTC)まで有効
西の風 8kt
視程: 10km
高度2500ftの雲は散在している
高度3500ftの千切れ雲あり
07日の 01時(UTC)から 07日の 03時(UTC)まで一時的に
視程: 9.7km
弱いにわか雪
07日の 0800時(UTC)から
西の風 12kt
視程: 10km
高度5000ftの千切れ雲あり
07日の 1400時(UTC)から
北西の風 11kt
視程: 10km
高度4000ftの千切れ雲あり
07日の 2100時(UTC)から
西の風 6kt
視程: 10km
高度10000ftの雲は散在している

TAF: KROC 070116Z 0701/0724 27008KT P6SM SCT025 BKN035 TEMPO 0701/0703 6SM -SHSN FM070800 28012KT P6SM BKN050 FM071400 31011KT P6SM BKN040 FM072100 27006KT P6SM SCT100

4,000以上の空港の気象観測と天気予報(METAR報とTAF報)

利用可能な観測所は地図上に黄色い丸と赤い丸で示す。

丸の上にカーソルを重ねると観測所名を参照できる。

次にクリックすると気象観測と天気予報を参照できる。

マップの切り替え:黒色「×」印の緑ボタンをクリックして拡大、「-」印の緑ボタンをクリックして縮小、緑色の三角印をクリックして隣りの地図に切り替え


METAR-TAF: